createdAt,value
2022-12-18T00:04:58.629Z,72.59
2022-12-18T00:10:01.626Z,72.69
2022-12-18T00:15:05.040Z,72.70
2022-12-18T00:20:09.515Z,72.65
2022-12-18T00:25:12.473Z,72.40
2022-12-18T00:30:15.662Z,72.49
2022-12-18T00:35:18.894Z,72.24
2022-12-18T00:40:21.884Z,72.17
2022-12-18T00:45:31.638Z,72.22
2022-12-18T00:50:34.608Z,72.52
2022-12-18T00:55:40.683Z,72.13
2022-12-18T01:00:44.358Z,71.80
2022-12-18T01:05:47.416Z,71.48
2022-12-18T01:10:50.679Z,71.52
2022-12-18T01:15:53.738Z,71.64
2022-12-18T01:20:56.803Z,71.53
2022-12-18T01:26:04.885Z,71.41
2022-12-18T01:31:29.665Z,71.55
2022-12-18T01:36:36.813Z,71.31
2022-12-18T01:41:59.037Z,71.23
2022-12-18T01:47:02.132Z,70.98
2022-12-18T01:52:05.149Z,70.75
2022-12-18T01:57:08.562Z,70.87
2022-12-18T02:02:12.928Z,70.86
2022-12-18T02:08:03.726Z,70.90
2022-12-18T02:13:23.839Z,70.93
2022-12-18T02:18:36.769Z,70.87
2022-12-18T02:23:55.942Z,70.92
2022-12-18T02:29:22.897Z,70.89
2022-12-18T02:34:32.776Z,70.55
2022-12-18T02:39:38.169Z,70.43
2022-12-18T02:44:50.956Z,70.64
2022-12-18T02:50:15.920Z,70.41
2022-12-18T02:55:59.631Z,70.46
2022-12-18T03:01:24.329Z,70.46
2022-12-18T03:06:48.894Z,70.27
2022-12-18T03:12:25.554Z,69.94
2022-12-18T03:17:32.243Z,69.26
2022-12-18T03:22:38.623Z,69.22
2022-12-18T03:27:47.993Z,69.73
2022-12-18T03:33:24.972Z,70.10
2022-12-18T03:38:28.124Z,70.48
2022-12-18T03:43:53.353Z,70.66
2022-12-18T03:49:41.280Z,70.66
2022-12-18T03:54:46.634Z,70.62
2022-12-18T03:59:57.347Z,70.38
2022-12-18T04:05:06.147Z,70.17
2022-12-18T04:10:11.381Z,69.90
2022-12-18T04:15:14.816Z,69.54
2022-12-18T04:20:18.837Z,69.55
2022-12-18T04:25:21.648Z,69.95
2022-12-18T04:30:24.630Z,70.28
2022-12-18T04:35:28.311Z,70.44
2022-12-18T04:40:31.290Z,70.16
2022-12-18T04:45:34.757Z,69.96
2022-12-18T04:50:37.829Z,69.74
2022-12-18T04:55:40.851Z,69.54
2022-12-18T05:00:44.754Z,69.37
2022-12-18T05:05:53.956Z,69.78
2022-12-18T05:11:04.712Z,69.92
2022-12-18T05:16:09.223Z,70.42
2022-12-18T05:21:12.642Z,70.54
2022-12-18T05:26:19.330Z,70.72
2022-12-18T05:31:22.337Z,70.54
2022-12-18T05:36:25.402Z,70.74
2022-12-18T05:41:29.783Z,70.66
2022-12-18T05:46:32.910Z,70.63
2022-12-18T05:51:36.051Z,69.95
2022-12-18T05:56:42.951Z,70.04
2022-12-18T06:01:48.765Z,69.94
2022-12-18T06:06:51.984Z,69.89
2022-12-18T06:11:55.004Z,69.46
2022-12-18T06:16:57.987Z,69.46
2022-12-18T06:22:00.976Z,69.39
2022-12-18T06:27:04.039Z,69.18
2022-12-18T06:32:07.269Z,69.33
2022-12-18T06:37:10.510Z,69.17
2022-12-18T06:42:13.489Z,69.27
2022-12-18T06:47:16.581Z,69.26
2022-12-18T06:52:19.566Z,69.12
2022-12-18T06:57:22.589Z,68.81
2022-12-18T07:02:25.793Z,68.23
2022-12-18T07:07:28.950Z,68.65
2022-12-18T07:12:31.950Z,68.87
2022-12-18T07:17:35.339Z,68.93
2022-12-18T07:22:38.351Z,69.09
2022-12-18T07:27:41.346Z,68.76
2022-12-18T07:32:44.305Z,68.80
2022-12-18T07:37:47.299Z,68.52
2022-12-18T07:42:50.251Z,68.81
2022-12-18T07:47:53.218Z,68.71
2022-12-18T07:52:56.204Z,68.55
2022-12-18T07:58:03.730Z,68.75
2022-12-18T08:03:06.776Z,68.65
2022-12-18T08:08:09.864Z,68.65
2022-12-18T08:13:12.831Z,68.45
2022-12-18T08:18:15.831Z,68.02
2022-12-18T08:23:18.811Z,67.86
2022-12-18T08:28:21.800Z,68.13
2022-12-18T08:33:25.208Z,67.61
2022-12-18T08:38:28.978Z,67.66
2022-12-18T08:43:50.779Z,67.47
2022-12-18T08:48:56.031Z,67.75
2022-12-18T08:53:59.148Z,67.48
2022-12-18T08:59:02.716Z,67.61
2022-12-18T09:04:05.805Z,66.95
2022-12-18T09:09:10.983Z,66.77
2022-12-18T09:14:13.987Z,66.55
2022-12-18T09:19:16.988Z,66.68
2022-12-18T09:24:20.040Z,66.75
2022-12-18T09:29:23.034Z,66.82
2022-12-18T09:34:26.019Z,66.89
2022-12-18T09:39:29.483Z,66.00
2022-12-18T09:44:45.793Z,66.05
2022-12-18T09:49:55.092Z,65.85
2022-12-18T09:55:13.007Z,65.77
2022-12-18T10:00:26.893Z,65.66
2022-12-18T10:05:39.044Z,64.90
2022-12-18T10:10:55.866Z,64.50
2022-12-18T10:16:11.420Z,64.51
2022-12-18T10:21:31.312Z,64.55
2022-12-18T10:26:34.379Z,64.61
2022-12-18T10:31:37.414Z,64.79
2022-12-18T10:36:40.629Z,64.85
2022-12-18T10:41:43.694Z,65.35
2022-12-18T10:46:50.229Z,64.99
2022-12-18T10:52:07.152Z,65.42
2022-12-18T10:57:31.035Z,64.84
2022-12-18T11:02:39.871Z,64.89
2022-12-18T11:07:51.942Z,65.14
2022-12-18T11:12:55.034Z,64.85
2022-12-18T11:17:58.069Z,64.74
2022-12-18T11:23:15.190Z,64.44
2022-12-18T11:28:42.614Z,64.28
2022-12-18T11:34:28.067Z,64.58
2022-12-18T11:39:42.233Z,64.32
2022-12-18T11:44:53.947Z,64.58
2022-12-18T11:50:02.425Z,64.27
2022-12-18T11:55:30.184Z,63.73
2022-12-18T12:00:43.460Z,64.14
2022-12-18T12:06:11.640Z,63.81
2022-12-18T12:11:55.967Z,63.71
2022-12-18T12:17:06.092Z,64.20
2022-12-18T12:22:36.233Z,63.77
2022-12-18T12:28:21.621Z,63.88
2022-12-18T12:33:54.936Z,63.99
2022-12-18T12:39:03.070Z,64.07
2022-12-18T12:44:15.180Z,63.89
2022-12-18T12:49:25.464Z,64.01
2022-12-18T12:54:29.886Z,64.32
2022-12-18T13:00:00.540Z,64.49
2022-12-18T13:05:46.659Z,64.69
2022-12-18T13:10:50.483Z,64.82
2022-12-18T13:16:09.269Z,65.01
2022-12-18T13:21:34.710Z,65.05
2022-12-18T13:26:37.822Z,65.05
2022-12-18T13:31:41.176Z,65.52
2022-12-18T13:36:46.783Z,65.90
2022-12-18T13:42:31.120Z,65.82
2022-12-18T13:47:41.511Z,65.51
2022-12-18T13:52:44.822Z,65.44
2022-12-18T13:57:48.066Z,65.16
2022-12-18T14:02:52.294Z,65.23
2022-12-18T14:08:00.649Z,65.40
2022-12-18T14:13:09.422Z,65.63
2022-12-18T14:18:37.984Z,65.87
2022-12-18T14:23:43.785Z,65.94
2022-12-18T14:28:47.526Z,66.15
2022-12-18T14:33:52.787Z,66.20
2022-12-18T14:38:59.058Z,65.96
2022-12-18T14:44:12.311Z,66.20
2022-12-18T14:49:33.693Z,66.12
2022-12-18T14:54:38.600Z,65.94
2022-12-18T14:59:41.736Z,65.85
2022-12-18T15:04:45.153Z,66.02
2022-12-18T15:10:18.738Z,66.17
2022-12-18T15:15:34.301Z,66.13
2022-12-18T15:20:43.629Z,66.22
2022-12-18T15:25:49.062Z,65.95
2022-12-18T15:31:09.903Z,65.69
2022-12-18T15:36:26.179Z,65.47
2022-12-18T15:41:35.220Z,65.91
2022-12-18T15:46:39.204Z,65.67
2022-12-18T15:51:43.563Z,65.55
2022-12-18T15:57:06.745Z,65.50
2022-12-18T16:02:19.331Z,65.21
2022-12-18T16:07:25.018Z,65.65
2022-12-18T16:12:28.771Z,66.10
2022-12-18T16:17:32.293Z,65.93
2022-12-18T16:22:35.452Z,66.03
2022-12-18T16:27:38.438Z,66.28
2022-12-18T16:32:41.464Z,66.77
2022-12-18T16:37:45.129Z,66.75
2022-12-18T16:42:48.160Z,66.54
2022-12-18T16:47:51.162Z,66.71
2022-12-18T16:52:54.158Z,66.81
2022-12-18T16:57:57.144Z,66.93
2022-12-18T17:03:00.221Z,67.04
2022-12-18T17:08:04.128Z,66.81
2022-12-18T17:13:07.277Z,66.64
2022-12-18T17:18:10.280Z,66.81
2022-12-18T17:23:13.314Z,66.93
2022-12-18T17:28:16.392Z,66.88
2022-12-18T17:33:20.219Z,67.13
2022-12-18T17:38:23.322Z,66.95
2022-12-18T17:43:26.427Z,67.01
2022-12-18T17:48:30.588Z,66.97
2022-12-18T17:53:34.684Z,67.40
2022-12-18T17:58:38.100Z,67.15
2022-12-18T18:03:42.571Z,67.13
2022-12-18T18:08:46.053Z,67.22
2022-12-18T18:14:01.405Z,67.20
2022-12-18T18:19:08.864Z,66.82
2022-12-18T18:24:15.608Z,66.46
2022-12-18T18:29:22.644Z,66.39
2022-12-18T18:34:29.478Z,67.03
2022-12-18T18:39:32.953Z,66.49
2022-12-18T18:44:36.083Z,67.22
2022-12-18T18:49:39.163Z,67.05
2022-12-18T18:55:03.619Z,66.98
2022-12-18T19:00:06.936Z,66.68
2022-12-18T19:05:10.232Z,66.83
2022-12-18T19:10:13.397Z,66.92
2022-12-18T19:15:16.503Z,67.38
2022-12-18T19:20:19.916Z,67.31
2022-12-18T19:25:40.723Z,67.39
2022-12-18T19:30:45.788Z,67.33
2022-12-18T19:35:50.274Z,67.08
2022-12-18T19:40:53.639Z,67.57
2022-12-18T19:45:56.832Z,67.18
2022-12-18T19:51:06.891Z,67.34
2022-12-18T19:56:14.029Z,67.48
2022-12-18T20:01:19.849Z,67.24
2022-12-18T20:06:48.799Z,66.98
2022-12-18T20:11:52.215Z,67.34
2022-12-18T20:16:56.413Z,67.20
2022-12-18T20:21:59.960Z,67.32
2022-12-18T20:27:03.169Z,67.57
2022-12-18T20:32:06.721Z,67.69
2022-12-18T20:37:10.141Z,67.60
2022-12-18T20:42:15.253Z,67.88
2022-12-18T20:47:18.373Z,68.19
2022-12-18T20:52:22.289Z,67.48
2022-12-18T20:57:26.926Z,67.34
2022-12-18T21:02:30.499Z,67.75
2022-12-18T21:07:33.752Z,67.50
2022-12-18T21:12:45.307Z,66.99
2022-12-18T21:18:02.113Z,67.35
2022-12-18T21:23:16.049Z,67.16
2022-12-18T21:28:19.865Z,67.65
2022-12-18T21:33:22.971Z,67.98
2022-12-18T21:38:28.147Z,68.29
2022-12-18T21:43:50.092Z,68.25
2022-12-18T21:48:53.177Z,68.29
2022-12-18T21:53:57.107Z,68.19
2022-12-18T21:59:00.038Z,68.59
2022-12-18T22:04:03.154Z,68.98
2022-12-18T22:09:06.840Z,68.69
2022-12-18T22:14:10.551Z,68.52
2022-12-18T22:19:14.870Z,68.45
2022-12-18T22:24:29.408Z,68.36
2022-12-18T22:29:51.203Z,68.51
2022-12-18T22:34:54.206Z,68.63
2022-12-18T22:39:57.313Z,68.79
2022-12-18T22:45:01.141Z,68.63
2022-12-18T22:50:05.998Z,68.08
2022-12-18T22:55:09.703Z,68.52
2022-12-18T23:00:13.966Z,68.67
2022-12-18T23:05:17.280Z,68.58
2022-12-18T23:10:20.556Z,68.62
2022-12-18T23:15:28.125Z,68.50
2022-12-18T23:20:31.582Z,68.53
2022-12-18T23:25:34.892Z,68.32
2022-12-18T23:30:37.933Z,67.98
2022-12-18T23:35:41.001Z,68.40
2022-12-18T23:40:44.112Z,67.84
2022-12-18T23:45:53.969Z,67.69
2022-12-18T23:50:58.727Z,67.77
2022-12-18T23:56:03.367Z,67.58
